createdAt,value
2019-05-28T00:01:11.945Z,3.53
2019-05-28T00:03:41.653Z,2.87
2019-05-28T00:06:12.794Z,3.30
2019-05-28T00:08:42.362Z,3.87
2019-05-28T00:11:11.949Z,3.47
2019-05-28T00:13:41.553Z,3.40
2019-05-28T00:16:11.253Z,3.00
2019-05-28T00:18:42.837Z,2.70
2019-05-28T00:21:12.427Z,3.13
2019-05-28T00:23:42.199Z,3.20
2019-05-28T00:26:11.930Z,3.37
2019-05-28T00:28:43.030Z,3.77
2019-05-28T00:31:31.991Z,3.07
2019-05-28T00:34:01.495Z,3.87
2019-05-28T00:36:31.028Z,3.93
2019-05-28T00:39:05.117Z,3.90
2019-05-28T00:41:34.816Z,3.23
2019-05-28T00:44:05.036Z,3.70
2019-05-28T00:46:34.979Z,3.67
2019-05-28T00:49:04.641Z,3.57
2019-05-28T00:51:35.956Z,3.73
2019-05-28T00:54:06.237Z,3.80
2019-05-28T00:56:36.493Z,3.70
2019-05-28T00:59:06.729Z,3.43
2019-05-28T01:01:36.316Z,3.50
2019-05-28T01:04:06.728Z,3.97
2019-05-28T01:06:36.308Z,3.90
2019-05-28T01:09:10.446Z,3.00
2019-05-28T01:11:40.048Z,4.50
2019-05-28T01:14:09.711Z,4.10
2019-05-28T01:16:39.267Z,3.17
2019-05-28T01:19:08.992Z,3.70
2019-05-28T01:21:42.693Z,3.57
2019-05-28T01:24:12.797Z,4.00
2019-05-28T01:26:42.389Z,3.80
2019-05-28T01:29:13.107Z,3.70
2019-05-28T01:34:25.253Z,4.20
2019-05-28T01:36:54.786Z,3.40
2019-05-28T01:39:24.381Z,3.57
2019-05-28T01:41:57.116Z,3.10
2019-05-28T01:44:26.895Z,3.07
2019-05-28T01:46:56.457Z,3.30
2019-05-28T01:49:26.031Z,3.77
2019-05-28T01:51:55.548Z,3.50
2019-05-28T01:54:25.139Z,3.77
2019-05-28T01:56:54.692Z,3.03
2019-05-28T01:59:24.268Z,4.37
2019-05-28T02:01:53.792Z,3.50
2019-05-28T02:04:25.461Z,3.90
2019-05-28T02:06:54.988Z,4.40
2019-05-28T02:09:24.499Z,3.37
2019-05-28T02:11:54.049Z,4.30
2019-05-28T02:14:23.775Z,4.10
2019-05-28T02:16:53.317Z,4.20
2019-05-28T02:19:25.577Z,4.50
2019-05-28T02:21:56.834Z,3.90
2019-05-28T02:24:26.373Z,4.07
2019-05-28T02:26:57.888Z,3.73
2019-05-28T02:29:27.520Z,3.90
2019-05-28T02:31:57.075Z,4.33
2019-05-28T02:34:26.622Z,4.10
2019-05-28T02:36:56.263Z,4.10
2019-05-28T02:39:26.224Z,5.47
2019-05-28T02:41:55.911Z,4.57
2019-05-28T02:44:25.496Z,4.30
2019-05-28T02:46:55.164Z,4.07
2019-05-28T02:49:24.977Z,4.77
2019-05-28T02:51:55.312Z,4.33
2019-05-28T02:54:25.870Z,4.47
2019-05-28T02:56:56.203Z,4.50
2019-05-28T02:59:27.854Z,4.90
2019-05-28T03:01:59.542Z,4.93
2019-05-28T03:04:32.697Z,6.10
2019-05-28T03:07:04.858Z,5.57
2019-05-28T03:09:36.024Z,4.73
2019-05-28T03:12:05.699Z,5.50
2019-05-28T03:14:35.215Z,5.00
2019-05-28T03:17:05.799Z,4.60
2019-05-28T03:19:37.662Z,5.57
2019-05-28T03:22:09.633Z,4.97
2019-05-28T03:24:40.587Z,5.30
2019-05-28T03:27:10.285Z,5.00
2019-05-28T03:29:39.941Z,5.60
2019-05-28T03:32:09.986Z,5.10
2019-05-28T03:34:42.289Z,5.60
2019-05-28T03:37:13.053Z,5.30
2019-05-28T03:39:44.583Z,5.70
2019-05-28T03:42:14.130Z,5.53
2019-05-28T03:44:43.647Z,5.30
2019-05-28T03:47:13.241Z,5.07
2019-05-28T03:49:43.056Z,6.17
2019-05-28T03:52:12.578Z,5.93
2019-05-28T03:54:42.506Z,5.60
2019-05-28T03:57:12.050Z,5.83
2019-05-28T03:59:41.577Z,6.37
2019-05-28T04:02:23.056Z,6.30
2019-05-28T04:04:47.521Z,6.07
2019-05-28T04:07:17.111Z,6.03
2019-05-28T04:09:46.627Z,6.30
2019-05-28T04:12:16.185Z,6.30
2019-05-28T04:14:45.728Z,5.83
2019-05-28T04:17:15.382Z,5.30
2019-05-28T04:19:44.918Z,6.23
2019-05-28T04:22:14.560Z,6.93
2019-05-28T04:24:44.089Z,6.80
2019-05-28T04:27:14.155Z,6.47
2019-05-28T04:29:43.644Z,5.90
2019-05-28T04:32:13.189Z,6.00
2019-05-28T04:34:42.740Z,7.27
2019-05-28T04:37:12.247Z,6.07
2019-05-28T04:39:41.775Z,5.33
2019-05-28T04:42:11.395Z,5.70
2019-05-28T04:44:43.697Z,5.07
2019-05-28T04:47:13.261Z,4.67
2019-05-28T04:49:43.900Z,4.63
2019-05-28T04:52:13.481Z,4.80
2019-05-28T04:54:42.982Z,4.80
2019-05-28T04:57:12.710Z,4.80
2019-05-28T04:59:42.283Z,5.00
2019-05-28T05:02:11.811Z,4.87
2019-05-28T05:04:41.349Z,5.90
2019-05-28T05:07:11.541Z,5.00
2019-05-28T05:09:41.101Z,4.90
2019-05-28T05:12:12.097Z,4.80
2019-05-28T05:14:43.401Z,4.17
2019-05-28T05:17:12.972Z,3.53
2019-05-28T05:19:42.550Z,4.03
2019-05-28T05:22:12.152Z,3.50
2019-05-28T05:24:41.678Z,3.40
2019-05-28T05:27:11.258Z,2.53
2019-05-28T05:29:42.262Z,2.80
2019-05-28T05:32:11.844Z,3.10
2019-05-28T05:34:42.647Z,2.37
2019-05-28T05:37:12.171Z,2.23
2019-05-28T05:39:42.088Z,2.13
2019-05-28T05:42:11.888Z,2.70
2019-05-28T05:44:41.509Z,2.40
2019-05-28T05:47:11.199Z,2.23
2019-05-28T05:49:40.843Z,2.00
2019-05-28T05:52:10.447Z,1.97
2019-05-28T05:54:40.122Z,2.20
2019-05-28T05:57:09.843Z,2.40
2019-05-28T05:59:39.437Z,2.33
2019-05-28T06:02:11.541Z,2.50
2019-05-28T06:04:41.224Z,3.00
2019-05-28T06:07:10.840Z,2.40
2019-05-28T06:09:40.351Z,2.70
2019-05-28T06:12:11.740Z,2.40
2019-05-28T06:14:41.448Z,2.50
2019-05-28T06:17:11.204Z,3.10
2019-05-28T06:19:40.900Z,2.17
2019-05-28T06:22:10.667Z,1.60
2019-05-28T06:24:40.258Z,1.90
2019-05-28T06:27:09.836Z,2.20
2019-05-28T06:29:39.464Z,2.43
2019-05-28T06:32:09.136Z,1.67
2019-05-28T06:34:39.013Z,2.00
2019-05-28T06:37:08.545Z,1.37
2019-05-28T06:39:38.104Z,2.30
2019-05-28T06:42:07.776Z,2.33
2019-05-28T06:44:37.339Z,2.20
2019-05-28T06:47:07.002Z,2.50
2019-05-28T06:49:36.649Z,1.70
2019-05-28T06:52:06.371Z,2.20
2019-05-28T06:54:35.954Z,2.73
2019-05-28T06:57:21.773Z,2.00
2019-05-28T06:59:37.115Z,2.50
2019-05-28T07:02:07.473Z,3.73
2019-05-28T07:04:37.379Z,2.27
2019-05-28T07:07:07.123Z,2.17
2019-05-28T07:09:37.040Z,2.10
2019-05-28T07:12:06.684Z,3.07
2019-05-28T07:14:37.872Z,10.27
2019-05-28T07:17:07.388Z,1.93
2019-05-28T07:19:37.585Z,2.07
2019-05-28T07:22:07.259Z,1.67
2019-05-28T07:24:36.902Z,1.90
2019-05-28T07:27:06.449Z,1.90
2019-05-28T07:29:36.186Z,2.50
2019-05-28T07:32:05.850Z,2.10
2019-05-28T07:34:35.619Z,2.27
2019-05-28T07:37:05.431Z,1.73
2019-05-28T07:39:35.008Z,1.50
2019-05-28T07:42:04.922Z,1.53
2019-05-28T07:44:34.821Z,2.17
2019-05-28T07:47:05.954Z,2.13
2019-05-28T07:49:35.491Z,1.17
2019-05-28T07:52:07.165Z,1.80
2019-05-28T07:54:39.248Z,1.60
2019-05-28T07:57:08.200Z,1.80
2019-05-28T07:59:37.710Z,1.60
2019-05-28T08:02:07.323Z,2.07
2019-05-28T08:04:46.669Z,1.50
2019-05-28T08:07:08.270Z,1.70
2019-05-28T08:09:37.789Z,1.50
2019-05-28T08:12:07.491Z,1.97
2019-05-28T08:14:37.175Z,2.27
2019-05-28T08:17:06.867Z,1.90
2019-05-28T08:19:36.592Z,2.10
2019-05-28T08:22:06.200Z,1.97
2019-05-28T08:24:37.350Z,2.20
2019-05-28T08:27:06.896Z,1.90
2019-05-28T08:29:36.490Z,1.57
2019-05-28T08:32:06.150Z,2.00
2019-05-28T08:34:35.703Z,1.80
2019-05-28T08:37:06.686Z,1.50
2019-05-28T08:39:36.634Z,1.20
2019-05-28T08:42:06.450Z,1.87
2019-05-28T08:44:36.135Z,1.50
2019-05-28T08:47:05.827Z,1.50
2019-05-28T08:49:35.398Z,1.40
2019-05-28T08:52:05.068Z,1.97
2019-05-28T08:54:34.670Z,1.53
2019-05-28T08:57:04.292Z,2.00
2019-05-28T08:59:33.862Z,1.80
2019-05-28T09:02:03.639Z,1.70
2019-05-28T09:04:33.276Z,1.97
2019-05-28T09:07:02.896Z,1.37
2019-05-28T09:09:33.074Z,1.70
2019-05-28T09:12:02.746Z,1.77
2019-05-28T09:14:54.403Z,2.20
2019-05-28T09:17:05.614Z,1.47
2019-05-28T09:19:35.579Z,1.40
2019-05-28T09:22:05.311Z,1.60
2019-05-28T09:24:35.217Z,1.30
2019-05-28T09:27:04.945Z,1.67
2019-05-28T09:29:34.582Z,1.60
2019-05-28T09:32:06.194Z,1.37
2019-05-28T09:34:35.821Z,1.10
2019-05-28T09:37:05.465Z,1.30
2019-05-28T09:39:35.308Z,1.37
2019-05-28T09:42:07.963Z,1.60
2019-05-28T09:44:37.588Z,1.20
2019-05-28T09:47:07.119Z,1.53
2019-05-28T09:49:36.682Z,1.73
2019-05-28T09:52:06.254Z,1.20
2019-05-28T09:54:35.829Z,1.20
2019-05-28T09:57:07.358Z,1.50
2019-05-28T09:59:41.556Z,1.70
2019-05-28T10:02:08.585Z,1.90
2019-05-28T10:04:49.381Z,1.50
2019-05-28T10:07:10.305Z,1.23
2019-05-28T10:09:39.991Z,1.63
2019-05-28T10:12:09.622Z,1.50
2019-05-28T10:14:39.243Z,1.83
2019-05-28T10:17:08.909Z,1.80
2019-05-28T10:19:38.565Z,1.40
2019-05-28T10:22:08.246Z,1.60
2019-05-28T10:24:37.848Z,1.80
2019-05-28T10:27:07.603Z,1.70
2019-05-28T10:29:37.194Z,1.50
2019-05-28T10:32:06.861Z,1.53
2019-05-28T10:34:36.406Z,1.80
2019-05-28T10:37:06.051Z,1.70
2019-05-28T10:39:35.733Z,2.03
2019-05-28T10:42:05.841Z,2.03
2019-05-28T10:44:35.672Z,1.93
2019-05-28T10:47:05.365Z,2.07
2019-05-28T10:49:35.137Z,1.93
2019-05-28T10:52:04.907Z,2.73
2019-05-28T10:54:34.625Z,1.90
2019-05-28T10:57:04.410Z,2.00
2019-05-28T10:59:34.085Z,1.87
2019-05-28T11:02:03.770Z,1.70
2019-05-28T11:04:33.826Z,1.77
2019-05-28T11:07:03.602Z,1.77
2019-05-28T11:09:33.256Z,1.00
2019-05-28T11:12:04.398Z,1.60
2019-05-28T11:14:34.446Z,1.47
2019-05-28T11:17:04.176Z,1.90
2019-05-28T11:19:33.785Z,1.60
2019-05-28T11:22:03.490Z,1.40
2019-05-28T11:24:33.342Z,1.53
2019-05-28T11:27:02.964Z,1.10
2019-05-28T11:29:32.490Z,1.67
2019-05-28T11:32:02.058Z,2.07
2019-05-28T11:34:32.217Z,1.73
2019-05-28T11:37:09.428Z,2.20
2019-05-28T11:39:34.638Z,1.60
2019-05-28T11:42:04.436Z,1.40
2019-05-28T11:44:34.155Z,1.93
2019-05-28T11:47:03.779Z,2.17
2019-05-28T11:49:34.410Z,3.07
2019-05-28T11:52:23.326Z,1.97
2019-05-28T11:54:52.976Z,3.60
2019-05-28T11:57:22.687Z,1.83
2019-05-28T11:59:52.973Z,1.33
2019-05-28T12:02:22.640Z,1.27
2019-05-28T12:04:53.806Z,1.40
2019-05-28T12:07:26.437Z,1.57
2019-05-28T12:09:55.873Z,1.40
2019-05-28T12:12:25.420Z,1.57
2019-05-28T12:14:55.033Z,1.50
2019-05-28T12:17:40.635Z,1.70
2019-05-28T12:19:55.899Z,2.07
2019-05-28T12:22:25.659Z,2.00
2019-05-28T12:24:55.278Z,1.60
2019-05-28T12:27:44.218Z,2.20
2019-05-28T12:30:18.367Z,1.77
2019-05-28T12:32:48.086Z,1.70
2019-05-28T12:35:29.067Z,1.33
2019-05-28T12:37:52.461Z,1.60
2019-05-28T12:40:22.515Z,1.93
2019-05-28T12:42:52.220Z,2.20
2019-05-28T12:45:34.880Z,2.20
2019-05-28T12:48:07.883Z,2.30
2019-05-28T12:50:27.247Z,1.80
2019-05-28T12:52:56.862Z,1.80
2019-05-28T12:55:26.508Z,1.77
2019-05-28T12:57:56.110Z,1.67
2019-05-28T13:00:27.006Z,1.53
2019-05-28T13:02:56.589Z,1.70
2019-05-28T13:05:29.367Z,2.10
2019-05-28T13:08:08.410Z,1.90
2019-05-28T13:10:30.364Z,1.90
2019-05-28T13:12:59.873Z,2.03
2019-05-28T13:15:30.922Z,2.40
2019-05-28T13:18:00.513Z,2.30
2019-05-28T13:20:30.036Z,1.87
2019-05-28T13:22:59.724Z,1.67
2019-05-28T13:25:29.691Z,1.70
2019-05-28T13:27:59.300Z,1.80
2019-05-28T13:30:28.940Z,1.80
2019-05-28T13:32:58.572Z,2.50
2019-05-28T13:35:28.458Z,1.60
2019-05-28T13:37:59.019Z,2.50
2019-05-28T13:40:28.678Z,1.77
2019-05-28T13:42:58.198Z,1.90
2019-05-28T13:45:27.955Z,1.67
2019-05-28T13:47:57.639Z,2.30
2019-05-28T13:50:29.631Z,1.70
2019-05-28T13:53:01.220Z,2.20
2019-05-28T13:55:30.840Z,2.03
2019-05-28T13:58:00.485Z,2.43
2019-05-28T14:00:31.451Z,2.27
2019-05-28T14:03:01.208Z,2.80
2019-05-28T14:05:30.775Z,2.10
2019-05-28T14:08:00.325Z,1.90
2019-05-28T14:10:30.085Z,1.77
2019-05-28T14:12:59.617Z,2.60
2019-05-28T14:15:29.656Z,2.33
2019-05-28T14:17:59.367Z,1.93
2019-05-28T14:20:29.086Z,1.70
2019-05-28T14:22:58.643Z,1.60
2019-05-28T14:25:28.260Z,2.33
2019-05-28T14:27:57.842Z,1.80
2019-05-28T14:30:28.629Z,2.50
2019-05-28T14:32:58.220Z,2.17
2019-05-28T14:35:27.893Z,1.83
2019-05-28T14:37:57.847Z,1.30
2019-05-28T14:40:28.671Z,2.20
2019-05-28T14:42:58.512Z,1.40
2019-05-28T14:45:28.851Z,1.43
2019-05-28T14:47:58.815Z,1.57
2019-05-28T14:50:28.382Z,2.23
2019-05-28T14:52:57.915Z,1.30
2019-05-28T14:55:27.523Z,1.60
2019-05-28T14:57:57.042Z,1.50
2019-05-28T15:00:27.230Z,1.23
2019-05-28T15:02:56.752Z,1.47
2019-05-28T15:05:26.429Z,1.70
2019-05-28T15:07:56.092Z,1.73
2019-05-28T15:10:25.751Z,3.60
2019-05-28T15:12:55.440Z,1.60
2019-05-28T15:15:36.071Z,1.87
2019-05-28T15:17:57.881Z,1.90
2019-05-28T15:20:27.530Z,1.70
2019-05-28T15:22:57.415Z,1.73
2019-05-28T15:25:26.970Z,1.40
2019-05-28T15:27:56.487Z,1.87
2019-05-28T15:30:26.671Z,2.00
2019-05-28T15:32:56.307Z,2.00
2019-05-28T15:35:25.893Z,2.23
2019-05-28T15:37:55.550Z,2.07
2019-05-28T15:40:25.277Z,2.33
2019-05-28T15:43:05.855Z,1.43
2019-05-28T15:45:27.115Z,1.57
2019-05-28T15:47:56.630Z,2.03
2019-05-28T15:50:26.406Z,1.53
2019-05-28T15:52:58.818Z,2.27
2019-05-28T15:55:27.466Z,1.70
2019-05-28T15:57:56.993Z,2.00
2019-05-28T16:00:27.077Z,1.57
2019-05-28T16:02:56.909Z,1.43
2019-05-28T16:05:26.748Z,1.83
2019-05-28T16:07:58.466Z,1.40
2019-05-28T16:10:28.104Z,1.90
2019-05-28T16:12:57.824Z,2.03
2019-05-28T16:15:27.533Z,2.43
2019-05-28T16:17:57.144Z,1.40
2019-05-28T16:20:26.703Z,2.00
2019-05-28T16:22:56.513Z,1.97
2019-05-28T16:25:26.210Z,1.60
2019-05-28T16:27:55.947Z,2.33
2019-05-28T16:30:27.163Z,2.03
2019-05-28T16:32:56.934Z,1.90
2019-05-28T16:35:27.654Z,1.90
2019-05-28T16:37:57.240Z,1.67
2019-05-28T16:40:26.804Z,2.97
2019-05-28T16:42:56.436Z,1.87
2019-05-28T16:45:27.478Z,1.90
2019-05-28T16:47:57.145Z,1.80
2019-05-28T16:50:26.744Z,1.60
2019-05-28T16:52:57.186Z,2.03
2019-05-28T16:55:26.768Z,1.70
2019-05-28T16:57:56.294Z,2.10
2019-05-28T17:00:26.135Z,1.70
2019-05-28T17:02:55.664Z,2.37
2019-05-28T17:05:25.360Z,1.73
2019-05-28T17:07:54.913Z,1.60
2019-05-28T17:10:33.135Z,1.60
2019-05-28T17:12:58.609Z,3.97
2019-05-28T17:15:29.436Z,2.23
2019-05-28T17:17:59.502Z,1.70
2019-05-28T17:20:29.064Z,3.00
2019-05-28T17:22:58.737Z,2.27
2019-05-28T17:25:28.343Z,1.83
2019-05-28T17:27:57.951Z,2.20
2019-05-28T17:30:27.521Z,2.17
2019-05-28T17:32:57.048Z,1.90
2019-05-28T17:35:27.114Z,1.87
2019-05-28T17:37:56.935Z,2.57
2019-05-28T17:40:26.844Z,1.93
2019-05-28T17:42:56.471Z,2.10
2019-05-28T17:45:26.149Z,2.57
2019-05-28T17:47:56.786Z,1.80
2019-05-28T17:50:26.499Z,2.30
2019-05-28T17:52:56.179Z,2.50
2019-05-28T17:55:25.851Z,2.20
2019-05-28T17:57:55.531Z,2.00
2019-05-28T18:00:25.307Z,2.43
2019-05-28T18:02:54.919Z,2.23
2019-05-28T18:05:24.557Z,1.60
2019-05-28T18:07:54.162Z,1.50
2019-05-28T18:10:23.956Z,1.60
2019-05-28T18:12:53.542Z,2.10
2019-05-28T18:15:27.829Z,3.33
2019-05-28T18:17:57.392Z,1.83
2019-05-28T18:20:27.055Z,1.90
2019-05-28T18:22:56.602Z,1.90
2019-05-28T18:25:26.196Z,2.60
2019-05-28T18:27:55.712Z,1.90
2019-05-28T18:30:25.430Z,1.47
2019-05-28T18:32:57.670Z,1.70
2019-05-28T18:35:27.271Z,1.30
2019-05-28T18:38:06.362Z,1.40
2019-05-28T18:40:30.700Z,1.30
2019-05-28T18:43:02.227Z,1.53
2019-05-28T18:45:31.949Z,1.63
2019-05-28T18:48:01.643Z,1.60
2019-05-28T18:50:31.294Z,1.53
2019-05-28T18:53:01.458Z,1.80
2019-05-28T18:55:30.973Z,1.37
2019-05-28T18:58:02.274Z,1.40
2019-05-28T19:00:31.999Z,1.00
2019-05-28T19:03:01.507Z,1.20
2019-05-28T19:05:31.210Z,1.00
2019-05-28T19:08:00.799Z,1.40
2019-05-28T19:10:30.409Z,1.33
2019-05-28T19:13:00.068Z,1.27
2019-05-28T19:15:30.239Z,1.10
2019-05-28T19:18:00.065Z,1.53
2019-05-28T19:20:29.651Z,1.37
2019-05-28T19:22:59.270Z,1.07
2019-05-28T19:25:28.937Z,1.00
2019-05-28T19:27:58.744Z,1.20
2019-05-28T19:30:38.789Z,1.13
2019-05-28T19:33:08.651Z,1.30
2019-05-28T19:35:38.586Z,1.10
2019-05-28T19:38:08.460Z,1.57
2019-05-28T19:40:41.833Z,1.57
2019-05-28T19:43:11.572Z,1.30
2019-05-28T19:45:42.062Z,1.00
2019-05-28T19:48:11.832Z,1.00
2019-05-28T19:50:41.308Z,0.90
2019-05-28T19:53:11.074Z,1.30
2019-05-28T19:55:40.729Z,1.27
2019-05-28T19:58:10.409Z,0.83
2019-05-28T20:00:40.193Z,1.00
2019-05-28T20:03:09.887Z,1.30
2019-05-28T20:05:39.588Z,1.30
2019-05-28T20:08:09.591Z,1.63
2019-05-28T20:10:39.342Z,0.90
2019-05-28T20:13:08.894Z,1.10
2019-05-28T20:15:38.786Z,1.17
2019-05-28T20:18:25.573Z,0.90
2019-05-28T20:20:39.923Z,1.37
2019-05-28T20:23:09.696Z,1.20
2019-05-28T20:25:39.292Z,1.00
2019-05-28T20:28:08.952Z,1.40
2019-05-28T20:30:38.948Z,11.80
2019-05-28T20:33:09.424Z,1.00
2019-05-28T20:35:39.127Z,1.20
2019-05-28T20:38:12.545Z,1.30
2019-05-28T20:40:42.412Z,1.23
2019-05-28T20:43:12.167Z,1.00
2019-05-28T20:45:42.667Z,1.00
2019-05-28T20:48:13.153Z,1.60
2019-05-28T20:50:42.845Z,1.20
2019-05-28T20:53:13.221Z,1.30
2019-05-28T20:55:43.207Z,1.20
2019-05-28T20:58:13.278Z,1.43
2019-05-28T21:00:43.033Z,1.03
2019-05-28T21:03:12.776Z,1.37
2019-05-28T21:05:42.440Z,1.20
2019-05-28T21:08:12.306Z,1.20
2019-05-28T21:10:41.966Z,1.40
2019-05-28T21:13:11.625Z,1.30
2019-05-28T21:15:41.275Z,1.30
2019-05-28T21:18:10.795Z,1.30
2019-05-28T21:20:42.085Z,1.40
2019-05-28T21:23:11.887Z,1.77
2019-05-28T21:25:41.480Z,1.30
2019-05-28T21:28:10.983Z,1.33
2019-05-28T21:30:40.751Z,1.60
2019-05-28T21:33:10.275Z,1.77
2019-05-28T21:35:39.788Z,1.30
2019-05-28T21:38:09.577Z,1.60
2019-05-28T21:40:39.247Z,1.40
2019-05-28T21:43:09.928Z,1.60
2019-05-28T21:45:39.833Z,1.30
2019-05-28T21:48:09.420Z,1.00
2019-05-28T21:50:38.948Z,1.10
2019-05-28T21:53:08.766Z,1.20
2019-05-28T21:55:38.437Z,1.50
2019-05-28T21:58:08.107Z,1.50
2019-05-28T22:00:47.318Z,1.20
2019-05-28T22:03:17.558Z,1.27
2019-05-28T22:05:47.216Z,1.60
2019-05-28T22:08:16.975Z,2.00
2019-05-28T22:10:46.479Z,1.10
2019-05-28T22:13:21.922Z,1.30
2019-05-28T22:15:47.340Z,1.47
2019-05-28T22:18:16.919Z,1.10
2019-05-28T22:20:46.613Z,1.17
2019-05-28T22:23:16.685Z,1.40
2019-05-28T22:25:49.031Z,1.53
2019-05-28T22:28:18.629Z,1.10
2019-05-28T22:30:48.835Z,2.17
2019-05-28T22:33:18.426Z,1.10
2019-05-28T22:35:48.017Z,1.20
2019-05-28T22:38:17.725Z,1.30
2019-05-28T22:40:47.249Z,2.13
2019-05-28T22:43:30.831Z,1.30
2019-05-28T22:45:48.211Z,0.93
2019-05-28T22:48:18.220Z,1.33
2019-05-28T22:50:49.583Z,1.30
2019-05-28T22:53:19.697Z,1.40
2019-05-28T22:55:49.259Z,1.10
2019-05-28T22:58:18.773Z,1.60
2019-05-28T23:00:48.366Z,1.57
2019-05-28T23:03:17.884Z,1.20
2019-05-28T23:05:47.566Z,1.47
2019-05-28T23:08:17.103Z,1.43
2019-05-28T23:10:46.803Z,1.70
2019-05-28T23:13:16.431Z,1.17
2019-05-28T23:15:47.512Z,1.30
2019-05-28T23:18:17.112Z,1.30
2019-05-28T23:20:46.773Z,1.17
2019-05-28T23:23:16.339Z,1.50
2019-05-28T23:25:45.986Z,1.40
2019-05-28T23:28:15.535Z,1.30
2019-05-28T23:30:45.165Z,1.33
2019-05-28T23:33:15.350Z,1.30
2019-05-28T23:35:45.040Z,1.73
2019-05-28T23:38:14.754Z,1.63
2019-05-28T23:40:44.404Z,1.57
2019-05-28T23:43:14.007Z,1.07
2019-05-28T23:45:43.718Z,1.50
2019-05-28T23:48:16.831Z,1.50
2019-05-28T23:50:44.518Z,1.50
2019-05-28T23:53:15.378Z,1.37
2019-05-28T23:55:45.068Z,2.03
2019-05-28T23:58:14.592Z,1.50
